createdAt,value
2018-09-23T00:00:20.422Z,2.90
2018-09-23T00:02:48.903Z,3.40
2018-09-23T00:05:17.468Z,3.50
2018-09-23T00:07:46.338Z,3.10
2018-09-23T00:10:14.775Z,3.20
2018-09-23T00:12:43.246Z,3.57
2018-09-23T00:15:11.742Z,3.50
2018-09-23T00:17:40.646Z,3.47
2018-09-23T00:20:09.192Z,3.13
2018-09-23T00:22:37.920Z,3.50
2018-09-23T00:25:07.099Z,3.50
2018-09-23T00:27:35.718Z,3.37
2018-09-23T00:30:04.599Z,3.50
2018-09-23T00:32:33.084Z,3.30
2018-09-23T00:35:01.765Z,3.10
2018-09-23T00:37:30.229Z,4.17
2018-09-23T00:39:58.706Z,3.73
2018-09-23T00:42:27.973Z,4.10
2018-09-23T00:44:56.374Z,3.10
2018-09-23T00:47:24.911Z,2.90
2018-09-23T00:49:53.351Z,3.00
2018-09-23T00:52:22.082Z,3.07
2018-09-23T00:54:50.515Z,2.93
2018-09-23T00:57:19.326Z,3.10
2018-09-23T00:59:47.748Z,3.10
2018-09-23T01:02:16.200Z,3.10
2018-09-23T01:04:45.063Z,2.87
2018-09-23T01:07:13.914Z,2.97
2018-09-23T01:09:42.383Z,3.10
2018-09-23T01:12:10.925Z,2.97
2018-09-23T01:14:39.426Z,2.83
2018-09-23T01:17:07.874Z,3.27
2018-09-23T01:19:36.270Z,2.97
2018-09-23T01:22:04.815Z,2.93
2018-09-23T01:24:33.305Z,3.20
2018-09-23T01:27:02.083Z,2.93
2018-09-23T01:29:30.553Z,2.80
2018-09-23T01:32:00.078Z,3.00
2018-09-23T01:34:28.687Z,3.00
2018-09-23T01:36:57.139Z,3.07
2018-09-23T01:39:26.243Z,3.20
2018-09-23T01:41:54.631Z,3.10
2018-09-23T01:44:23.522Z,2.80
2018-09-23T01:46:52.058Z,3.43
2018-09-23T01:49:20.516Z,3.40
2018-09-23T01:51:48.893Z,3.07
2018-09-23T01:54:17.345Z,3.40
2018-09-23T01:56:45.797Z,2.70
2018-09-23T01:59:14.204Z,3.60
2018-09-23T02:01:42.776Z,3.30
2018-09-23T02:04:11.231Z,3.73
2018-09-23T02:06:39.684Z,3.60
2018-09-23T02:09:08.813Z,3.40
2018-09-23T02:11:37.231Z,3.30
2018-09-23T02:14:05.794Z,3.60
2018-09-23T02:16:34.281Z,3.30
2018-09-23T02:19:02.763Z,3.47
2018-09-23T02:21:31.303Z,3.43
2018-09-23T02:23:59.922Z,4.03
2018-09-23T02:26:28.426Z,3.20
2018-09-23T02:28:57.022Z,3.80
2018-09-23T02:31:25.567Z,4.23
2018-09-23T02:33:57.246Z,3.53
2018-09-23T02:36:26.226Z,3.63
2018-09-23T02:38:54.753Z,3.80
2018-09-23T02:41:23.379Z,3.20
2018-09-23T02:43:51.804Z,3.27
2018-09-23T02:46:20.238Z,3.67
2018-09-23T02:48:48.813Z,3.33
2018-09-23T02:51:17.327Z,4.03
2018-09-23T02:53:45.807Z,3.80
2018-09-23T02:56:14.809Z,3.83
2018-09-23T02:58:43.199Z,4.03
2018-09-23T03:01:11.667Z,4.30
2018-09-23T03:03:40.766Z,3.80
2018-09-23T03:06:09.243Z,3.17
2018-09-23T03:08:37.726Z,4.10
2018-09-23T03:11:06.116Z,3.30
2018-09-23T03:13:34.650Z,3.43
2018-09-23T03:16:03.158Z,3.93
2018-09-23T03:18:31.542Z,3.40
2018-09-23T03:21:00.462Z,3.67
2018-09-23T03:23:28.961Z,3.70
2018-09-23T03:25:57.437Z,3.60
2018-09-23T03:28:26.038Z,3.60
2018-09-23T03:30:54.539Z,4.07
2018-09-23T03:33:22.992Z,3.67
2018-09-23T03:35:51.859Z,3.60
2018-09-23T03:38:20.389Z,3.80
2018-09-23T03:40:48.770Z,3.53
2018-09-23T03:43:17.329Z,3.60
2018-09-23T03:45:45.843Z,4.00
2018-09-23T03:48:14.245Z,3.57
2018-09-23T03:50:42.651Z,4.00
2018-09-23T03:53:11.095Z,4.10
2018-09-23T03:55:39.682Z,3.90
2018-09-23T03:58:08.921Z,3.80
2018-09-23T04:00:37.580Z,3.70
2018-09-23T04:03:06.408Z,3.47
2018-09-23T04:05:34.987Z,3.67
2018-09-23T04:08:03.444Z,3.73
2018-09-23T04:10:31.998Z,3.30
2018-09-23T04:13:00.479Z,3.27
2018-09-23T04:15:29.546Z,3.63
2018-09-23T04:17:57.960Z,3.50
2018-09-23T04:20:26.535Z,3.73
2018-09-23T04:22:55.185Z,3.77
2018-09-23T04:25:23.618Z,3.57
2018-09-23T04:27:52.133Z,3.57
2018-09-23T04:30:21.776Z,4.17
2018-09-23T04:32:51.027Z,4.10
2018-09-23T04:35:19.868Z,4.03
2018-09-23T04:37:48.834Z,3.90
2018-09-23T04:40:17.349Z,3.80
2018-09-23T04:42:45.775Z,4.03
2018-09-23T04:45:14.237Z,3.97
2018-09-23T04:47:42.701Z,4.00
2018-09-23T04:50:11.450Z,3.80
2018-09-23T04:52:39.983Z,3.97
2018-09-23T04:55:08.476Z,4.30
2018-09-23T04:57:36.954Z,3.93
2018-09-23T05:00:05.496Z,4.07
2018-09-23T05:02:34.266Z,4.27
2018-09-23T05:05:02.795Z,5.07
2018-09-23T05:07:31.386Z,4.87
2018-09-23T05:09:59.940Z,4.60
2018-09-23T05:12:28.491Z,4.43
2018-09-23T05:14:57.317Z,3.90
2018-09-23T05:17:25.779Z,4.43
2018-09-23T05:19:54.748Z,4.57
2018-09-23T05:22:23.251Z,4.03
2018-09-23T05:24:52.319Z,4.23
2018-09-23T05:27:20.767Z,4.37
2018-09-23T05:29:49.241Z,4.13
2018-09-23T05:32:17.741Z,4.40
2018-09-23T05:34:46.232Z,4.13
2018-09-23T05:37:14.676Z,3.83
2018-09-23T05:39:43.091Z,4.53
2018-09-23T05:42:11.643Z,4.40
2018-09-23T05:44:40.092Z,3.97
2018-09-23T05:47:08.580Z,4.80
2018-09-23T05:49:37.113Z,4.50
2018-09-23T05:52:06.207Z,4.40
2018-09-23T05:54:34.623Z,4.50
2018-09-23T05:57:03.030Z,4.40
2018-09-23T05:59:31.731Z,4.77
2018-09-23T06:02:00.286Z,4.63
2018-09-23T06:04:28.863Z,4.67
2018-09-23T06:06:58.048Z,4.40
2018-09-23T06:09:26.998Z,4.40
2018-09-23T06:11:55.629Z,4.90
2018-09-23T06:14:24.241Z,4.47
2018-09-23T06:16:52.639Z,4.60
2018-09-23T06:19:21.189Z,4.03
2018-09-23T06:21:49.706Z,5.10
2018-09-23T06:24:18.745Z,4.40
2018-09-23T06:26:47.137Z,4.83
2018-09-23T06:29:15.820Z,4.80
2018-09-23T06:31:48.990Z,4.83
2018-09-23T06:34:21.118Z,4.80
2018-09-23T06:36:49.826Z,4.77
2018-09-23T06:39:20.889Z,4.10
2018-09-23T06:41:49.607Z,4.03
2018-09-23T06:44:18.275Z,4.70
2018-09-23T06:46:46.822Z,4.37
2018-09-23T06:49:15.311Z,3.80
2018-09-23T06:51:44.906Z,4.93
2018-09-23T06:54:14.357Z,4.50
2018-09-23T06:56:43.126Z,4.40
2018-09-23T06:59:11.699Z,3.67
2018-09-23T07:01:40.332Z,4.27
2018-09-23T07:04:09.866Z,3.80
2018-09-23T07:06:38.385Z,3.90
2018-09-23T07:09:07.740Z,3.90
2018-09-23T07:11:36.322Z,4.27
2018-09-23T07:14:04.798Z,4.47
2018-09-23T07:16:33.739Z,4.30
2018-09-23T07:19:02.353Z,4.20
2018-09-23T07:21:30.892Z,4.57
2018-09-23T07:23:59.527Z,4.40
2018-09-23T07:26:27.939Z,4.30
2018-09-23T07:28:56.529Z,4.30
2018-09-23T07:31:25.296Z,4.33
2018-09-23T07:33:54.067Z,3.97
2018-09-23T07:36:23.110Z,4.20
2018-09-23T07:38:51.808Z,4.33
2018-09-23T07:41:20.517Z,3.83
2018-09-23T07:43:49.331Z,4.30
2018-09-23T07:46:17.820Z,4.70
2018-09-23T07:48:46.352Z,4.63
2018-09-23T07:51:14.977Z,4.30
2018-09-23T07:53:44.561Z,4.43
2018-09-23T07:56:13.800Z,4.00
2018-09-23T07:58:44.244Z,4.40
2018-09-23T08:01:13.424Z,4.07
2018-09-23T08:03:42.331Z,4.07
2018-09-23T08:06:11.304Z,4.20
2018-09-23T08:08:40.280Z,3.87
2018-09-23T08:11:10.007Z,4.40
2018-09-23T08:13:38.807Z,4.40
2018-09-23T08:16:07.489Z,4.77
2018-09-23T08:18:36.176Z,4.70
2018-09-23T08:21:04.794Z,4.23
2018-09-23T08:23:34.115Z,4.50
2018-09-23T08:26:02.725Z,4.93
2018-09-23T08:28:31.259Z,4.30
2018-09-23T08:30:59.725Z,4.47
2018-09-23T08:33:28.958Z,4.20
2018-09-23T08:35:57.689Z,4.77
2018-09-23T08:38:26.951Z,5.10
2018-09-23T08:40:56.496Z,4.33
2018-09-23T08:43:26.339Z,4.57
2018-09-23T08:45:55.816Z,4.67
2018-09-23T08:48:25.458Z,4.80
2018-09-23T08:50:54.694Z,4.40
2018-09-23T08:53:24.145Z,4.73
2018-09-23T08:55:53.143Z,4.90
2018-09-23T08:58:22.224Z,4.90
2018-09-23T09:00:51.262Z,4.57
2018-09-23T09:03:20.932Z,4.53
2018-09-23T09:05:50.721Z,4.50
2018-09-23T09:08:19.823Z,4.63
2018-09-23T09:10:49.009Z,4.17
2018-09-23T09:13:18.207Z,3.47
2018-09-23T09:15:48.658Z,4.47
2018-09-23T09:18:18.195Z,4.83
2018-09-23T09:20:47.180Z,4.27
2018-09-23T09:23:16.549Z,4.70
2018-09-23T09:25:46.290Z,4.70
2018-09-23T09:28:15.257Z,4.40
2018-09-23T09:30:44.491Z,4.20
2018-09-23T09:33:13.687Z,4.47
2018-09-23T09:35:42.971Z,4.50
2018-09-23T09:38:11.942Z,4.20
2018-09-23T09:40:41.542Z,4.80
2018-09-23T09:43:10.648Z,4.60
2018-09-23T09:45:39.766Z,4.90
2018-09-23T09:48:11.631Z,4.77
2018-09-23T09:50:41.311Z,4.93
2018-09-23T09:53:10.909Z,4.40
2018-09-23T09:55:40.296Z,4.97
2018-09-23T09:58:09.896Z,5.13
2018-09-23T10:00:38.825Z,4.50
2018-09-23T10:03:08.753Z,4.73
2018-09-23T10:05:38.027Z,5.27
2018-09-23T10:08:07.213Z,4.63
2018-09-23T10:10:36.024Z,4.63
2018-09-23T10:13:05.394Z,5.30
2018-09-23T10:15:34.635Z,5.70
2018-09-23T10:18:03.784Z,4.80
2018-09-23T10:20:33.258Z,5.70
2018-09-23T10:23:02.996Z,5.13
2018-09-23T10:25:33.507Z,5.17
2018-09-23T10:28:02.331Z,4.93
2018-09-23T10:30:31.599Z,5.40
2018-09-23T10:33:00.399Z,4.60
2018-09-23T10:35:29.272Z,5.00
2018-09-23T10:37:57.982Z,5.50
2018-09-23T10:40:27.045Z,4.97
2018-09-23T10:42:55.941Z,4.87
2018-09-23T10:45:24.758Z,5.03
2018-09-23T10:47:53.878Z,5.27
2018-09-23T10:50:23.253Z,5.77
2018-09-23T10:52:52.933Z,5.43
2018-09-23T10:55:21.841Z,5.73
2018-09-23T10:57:50.711Z,6.23
2018-09-23T11:00:19.873Z,5.70
2018-09-23T11:02:49.526Z,5.30
2018-09-23T11:05:19.151Z,5.27
2018-09-23T11:07:48.525Z,4.67
2018-09-23T11:10:17.610Z,5.87
2018-09-23T11:12:46.333Z,4.70
2018-09-23T11:15:15.402Z,5.43
2018-09-23T11:17:44.031Z,6.37
2018-09-23T11:20:12.670Z,7.40
2018-09-23T11:22:43.314Z,7.10
2018-09-23T11:25:12.243Z,5.87
2018-09-23T11:27:41.498Z,6.70
2018-09-23T11:30:10.182Z,6.37
2018-09-23T11:32:39.108Z,6.30
2018-09-23T11:35:08.235Z,5.83
2018-09-23T11:37:37.342Z,6.27
2018-09-23T11:40:06.522Z,6.27
2018-09-23T11:42:35.285Z,5.90
2018-09-23T11:45:04.247Z,6.80
2018-09-23T11:47:33.324Z,6.53
2018-09-23T11:50:02.328Z,6.43
2018-09-23T11:52:31.301Z,6.33
2018-09-23T11:55:00.101Z,7.10
2018-09-23T11:57:29.101Z,7.10
2018-09-23T11:59:57.987Z,7.10
2018-09-23T12:02:27.119Z,7.57
2018-09-23T12:04:56.381Z,6.67
2018-09-23T12:07:25.379Z,8.13
2018-09-23T12:09:54.251Z,7.27
2018-09-23T12:12:22.888Z,7.93
2018-09-23T12:14:52.443Z,8.40
2018-09-23T12:17:22.672Z,8.30
2018-09-23T12:19:51.655Z,8.40
2018-09-23T12:22:20.761Z,7.97
2018-09-23T12:24:49.950Z,7.00
2018-09-23T12:27:19.929Z,6.90
2018-09-23T12:29:51.421Z,8.77
2018-09-23T12:32:21.958Z,8.43
2018-09-23T12:34:50.971Z,7.67
2018-09-23T12:37:21.096Z,8.00
2018-09-23T12:39:50.403Z,8.53
2018-09-23T12:42:26.197Z,8.73
2018-09-23T12:44:56.842Z,10.03
2018-09-23T12:47:25.928Z,9.37
2018-09-23T12:49:55.227Z,9.20
2018-09-23T12:52:24.647Z,8.60
2018-09-23T12:54:53.713Z,8.73
2018-09-23T12:57:22.665Z,8.33
2018-09-23T12:59:51.957Z,7.63
2018-09-23T13:02:21.641Z,8.27
2018-09-23T13:04:51.445Z,7.87
2018-09-23T13:07:21.854Z,7.53
2018-09-23T13:09:51.695Z,8.03
2018-09-23T13:12:20.299Z,9.40
2018-09-23T13:14:49.090Z,8.63
2018-09-23T13:17:17.913Z,9.73
2018-09-23T13:19:46.823Z,8.97
2018-09-23T13:22:15.907Z,10.23
2018-09-23T13:24:44.606Z,10.77
2018-09-23T13:27:13.903Z,10.63
2018-09-23T13:29:43.703Z,9.80
2018-09-23T13:32:13.049Z,10.63
2018-09-23T13:34:41.943Z,9.77
2018-09-23T13:37:10.773Z,10.50
2018-09-23T13:39:39.819Z,10.17
2018-09-23T13:42:08.846Z,10.63
2018-09-23T13:44:37.810Z,10.77
2018-09-23T13:47:07.705Z,10.77
2018-09-23T13:49:37.011Z,10.47
2018-09-23T13:52:06.051Z,10.67
2018-09-23T13:54:35.353Z,11.13
2018-09-23T13:57:04.762Z,10.87
2018-09-23T13:59:33.775Z,11.40
2018-09-23T14:02:02.654Z,10.60
2018-09-23T14:04:32.551Z,10.30
2018-09-23T14:07:02.061Z,10.07
2018-09-23T14:09:31.563Z,11.03
2018-09-23T14:12:00.746Z,11.03
2018-09-23T14:14:29.765Z,11.17
2018-09-23T14:16:58.782Z,10.40
2018-09-23T14:19:27.772Z,10.97
2018-09-23T14:21:57.967Z,11.00
2018-09-23T14:24:28.128Z,10.13
2018-09-23T14:26:57.014Z,11.13
2018-09-23T14:29:26.176Z,10.27
2018-09-23T14:31:55.672Z,9.43
2018-09-23T14:34:24.297Z,9.97
2018-09-23T14:36:53.270Z,9.20
2018-09-23T14:39:22.661Z,8.50
2018-09-23T14:41:51.403Z,9.53
2018-09-23T14:44:20.740Z,10.40
2018-09-23T14:46:49.346Z,11.10
2018-09-23T14:49:18.825Z,11.50
2018-09-23T14:51:48.015Z,12.27
2018-09-23T14:54:18.013Z,12.40
2018-09-23T14:56:47.850Z,13.30
2018-09-23T14:59:18.051Z,12.67
2018-09-23T15:01:47.573Z,13.10
2018-09-23T15:04:17.558Z,12.00
2018-09-23T15:06:47.199Z,11.07
2018-09-23T15:09:15.708Z,11.47
2018-09-23T15:11:45.115Z,12.23
2018-09-23T15:14:14.541Z,10.97
2018-09-23T15:16:43.746Z,11.47
2018-09-23T15:19:12.455Z,10.87
2018-09-23T15:21:41.545Z,10.37
2018-09-23T15:24:10.274Z,10.47
2018-09-23T15:26:38.832Z,10.33
2018-09-23T15:29:07.899Z,8.60
2018-09-23T15:31:36.408Z,9.27
2018-09-23T15:34:04.929Z,9.87
2018-09-23T15:36:33.540Z,10.57
2018-09-23T15:39:02.088Z,10.47
2018-09-23T15:41:30.524Z,9.73
2018-09-23T15:43:59.500Z,10.70
2018-09-23T15:46:28.254Z,10.90
2018-09-23T15:48:56.795Z,10.97
2018-09-23T15:51:25.448Z,10.37
2018-09-23T15:53:54.251Z,9.37
2018-09-23T15:56:23.100Z,9.73
2018-09-23T15:58:51.858Z,9.27
2018-09-23T16:01:20.808Z,8.27
2018-09-23T16:03:49.400Z,9.30
2018-09-23T16:06:18.847Z,6.63
2018-09-23T16:08:47.582Z,6.17
2018-09-23T16:11:16.091Z,5.60
2018-09-23T16:13:44.686Z,4.50
2018-09-23T16:16:13.237Z,4.00
2018-09-23T16:18:41.916Z,3.67
2018-09-23T16:21:10.249Z,3.43
2018-09-23T16:23:38.751Z,3.50
2018-09-23T16:26:07.689Z,3.70
2018-09-23T16:28:36.486Z,3.47
2018-09-23T16:31:05.317Z,4.33
2018-09-23T16:33:33.957Z,4.50
2018-09-23T16:36:02.532Z,4.40
2018-09-23T16:38:31.358Z,4.20
2018-09-23T16:40:59.950Z,3.87
2018-09-23T16:43:29.150Z,3.83
2018-09-23T16:45:58.141Z,3.53
2018-09-23T16:48:26.684Z,4.10
2018-09-23T16:50:55.440Z,4.30
2018-09-23T16:53:24.196Z,4.30
2018-09-23T16:55:53.564Z,4.80
2018-09-23T16:58:22.839Z,3.73
2018-09-23T17:00:52.400Z,4.27
2018-09-23T17:03:20.967Z,4.50
2018-09-23T17:05:50.351Z,3.97
2018-09-23T17:08:19.245Z,4.37
2018-09-23T17:10:50.220Z,3.40
2018-09-23T17:13:19.263Z,3.20
2018-09-23T17:15:48.694Z,2.60
2018-09-23T17:18:17.176Z,3.87
2018-09-23T17:20:45.913Z,3.17
2018-09-23T17:23:14.607Z,2.67
2018-09-23T17:25:43.294Z,2.97
2018-09-23T17:28:11.839Z,2.67
2018-09-23T17:30:40.668Z,3.00
2018-09-23T17:33:11.847Z,2.33
2018-09-23T17:38:34.069Z,2.53
2018-09-23T17:41:02.585Z,2.53
2018-09-23T17:43:31.483Z,2.67
2018-09-23T17:46:00.455Z,2.33
2018-09-23T17:48:30.337Z,2.50
2018-09-23T17:50:58.871Z,2.17
2018-09-23T17:53:27.798Z,2.57
2018-09-23T17:55:57.610Z,2.47
2018-09-23T17:58:27.837Z,2.20
2018-09-23T18:00:56.630Z,2.60
2018-09-23T18:03:25.168Z,2.47
2018-09-23T18:05:54.105Z,2.30
2018-09-23T18:08:22.728Z,2.53
2018-09-23T18:10:52.124Z,2.97
2018-09-23T18:13:20.639Z,3.73
2018-09-23T18:15:49.402Z,2.50
2018-09-23T18:18:18.972Z,2.97
2018-09-23T18:20:48.799Z,2.57
2018-09-23T18:23:17.333Z,2.57
2018-09-23T18:25:46.349Z,2.77
2018-09-23T18:28:14.919Z,3.00
2018-09-23T18:30:43.655Z,3.10
2018-09-23T18:33:12.815Z,3.10
2018-09-23T18:35:41.274Z,3.10
2018-09-23T18:38:10.007Z,3.23
2018-09-23T18:40:39.137Z,3.33
2018-09-23T18:43:07.824Z,3.50
2018-09-23T18:45:36.753Z,4.13
2018-09-23T18:48:07.479Z,4.00
2018-09-23T18:50:36.683Z,4.17
2018-09-23T18:53:10.608Z,4.27
2018-09-23T18:55:41.533Z,4.47
2018-09-23T18:58:10.702Z,4.17
2018-09-23T19:00:39.776Z,4.00
2018-09-23T19:03:08.910Z,5.03
2018-09-23T19:05:37.523Z,4.50
2018-09-23T19:08:07.212Z,4.10
2018-09-23T19:10:36.422Z,3.70
2018-09-23T19:13:10.187Z,4.27
2018-09-23T19:15:38.599Z,4.33
2018-09-23T19:18:08.919Z,4.00
2018-09-23T19:20:50.535Z,4.33
2018-09-23T19:23:49.755Z,3.87
2018-09-23T19:26:18.270Z,3.70
2018-09-23T19:28:46.803Z,4.07
2018-09-23T19:31:15.312Z,4.17
2018-09-23T19:33:44.002Z,4.10
2018-09-23T19:36:12.575Z,3.97
2018-09-23T19:38:41.042Z,3.97
2018-09-23T19:41:10.091Z,4.40
2018-09-23T19:43:38.839Z,3.83
2018-09-23T19:46:07.679Z,3.50
2018-09-23T19:48:36.862Z,4.00
2018-09-23T19:51:06.164Z,3.90
2018-09-23T19:53:34.732Z,3.33
2018-09-23T19:56:03.382Z,4.03
2018-09-23T19:58:32.003Z,4.40
2018-09-23T20:01:00.643Z,3.97
2018-09-23T20:03:29.339Z,3.70
2018-09-23T20:05:58.023Z,3.17
2018-09-23T20:08:26.791Z,3.67
2018-09-23T20:10:55.379Z,3.83
2018-09-23T20:13:23.824Z,3.57
2018-09-23T20:15:52.456Z,3.93
2018-09-23T20:18:20.925Z,3.40
2018-09-23T20:20:49.471Z,3.97
2018-09-23T20:23:18.050Z,3.37
2018-09-23T20:25:47.249Z,3.53
2018-09-23T20:28:15.844Z,3.40
2018-09-23T20:30:44.454Z,3.93
2018-09-23T20:33:13.030Z,4.67
2018-09-23T20:35:41.755Z,3.70
2018-09-23T20:38:10.422Z,3.93
2018-09-23T20:40:39.867Z,4.27
2018-09-23T20:43:08.492Z,4.57
2018-09-23T20:45:37.278Z,5.27
2018-09-23T20:48:05.724Z,4.77
2018-09-23T20:50:34.227Z,5.13
2018-09-23T20:53:02.763Z,5.17
2018-09-23T20:55:31.410Z,4.97
2018-09-23T20:57:59.883Z,5.60
2018-09-23T21:00:28.581Z,5.40
2018-09-23T21:02:57.231Z,4.93
2018-09-23T21:05:25.878Z,5.17
2018-09-23T21:07:54.326Z,5.27
2018-09-23T21:10:22.932Z,5.20
2018-09-23T21:12:52.247Z,4.57
2018-09-23T21:15:20.895Z,5.97
2018-09-23T21:17:49.427Z,5.80
2018-09-23T21:20:18.789Z,5.30
2018-09-23T21:22:47.373Z,6.10
2018-09-23T21:25:15.877Z,5.40
2018-09-23T21:27:44.443Z,5.43
2018-09-23T21:30:13.101Z,5.57
2018-09-23T21:32:42.826Z,5.37
2018-09-23T21:35:11.343Z,4.87
2018-09-23T21:37:41.021Z,5.20
2018-09-23T21:40:09.527Z,4.80
2018-09-23T21:42:38.294Z,4.83
2018-09-23T21:45:06.904Z,4.73
2018-09-23T21:47:35.446Z,4.70
2018-09-23T21:50:04.041Z,5.00
2018-09-23T21:52:32.620Z,4.03
2018-09-23T21:57:43.771Z,4.17
2018-09-23T22:00:13.072Z,3.60
2018-09-23T22:02:41.543Z,3.80
2018-09-23T22:05:10.182Z,3.00
2018-09-23T22:07:38.715Z,3.50
2018-09-23T22:10:07.340Z,3.03
2018-09-23T22:12:35.893Z,3.10
2018-09-23T22:15:04.435Z,3.20
2018-09-23T22:17:32.959Z,3.27
2018-09-23T22:20:01.803Z,3.37
2018-09-23T22:22:30.155Z,3.27
2018-09-23T22:24:58.760Z,3.30
2018-09-23T22:27:27.266Z,3.23
2018-09-23T22:29:55.866Z,4.00
2018-09-23T22:32:24.431Z,4.30
2018-09-23T22:34:52.923Z,3.97
2018-09-23T22:37:21.554Z,4.43
2018-09-23T22:39:50.715Z,4.97
2018-09-23T22:42:19.245Z,5.07
2018-09-23T22:44:47.779Z,5.73
2018-09-23T22:47:16.639Z,4.80
2018-09-23T22:49:45.069Z,5.67
2018-09-23T22:52:13.496Z,4.77
2018-09-23T22:54:41.911Z,5.10
2018-09-23T22:57:10.340Z,5.27
2018-09-23T22:59:38.964Z,4.60
2018-09-23T23:02:07.627Z,5.13
2018-09-23T23:04:36.118Z,4.80
2018-09-23T23:07:04.690Z,5.03
2018-09-23T23:09:33.474Z,4.67
2018-09-23T23:12:01.992Z,4.90
2018-09-23T23:14:30.449Z,4.60
2018-09-23T23:16:59.045Z,4.63
2018-09-23T23:19:28.255Z,4.87
2018-09-23T23:21:57.655Z,4.87
2018-09-23T23:24:26.570Z,4.50
2018-09-23T23:26:56.068Z,3.97
2018-09-23T23:29:24.656Z,4.07
2018-09-23T23:31:53.559Z,3.90
2018-09-23T23:34:23.205Z,3.97
2018-09-23T23:37:01.910Z,3.43
2018-09-23T23:39:46.429Z,3.57
2018-09-23T23:42:15.397Z,3.00
2018-09-23T23:44:44.623Z,3.30
2018-09-23T23:47:13.098Z,2.97
2018-09-23T23:49:41.588Z,4.20
2018-09-23T23:52:10.025Z,3.37
2018-09-23T23:54:38.443Z,3.37
2018-09-23T23:57:07.409Z,2.73
2018-09-23T23:59:36.714Z,2.60
